Rock Hill, Mississippi
Current Conditions -  °F | °C
As of 5:24 PM on Friday 19 Dec 2014 (Local Time) from KHBG Reporting Station
Moderate Rain Moderate Rain  
Wind Chill: 45°   Ceiling: 4100
Heat Index: 48°   Visibility: 5mi
Dew Point: 46°   Wind: 6mph
Humidity: 93%   Direction: 10°N
Pressure: 30.15"   Gusts: NA
Location:  31.1558°N, 89.5311°W
Report Text: KHBG 192324Z AUTO 01005KT 5SM RA BR FEW008 BKN041 OVC065 09/08 A3015 RMK AO2 P0003 T00890078
Loading
Personal Weather Stations






























Interactive Weather Map New forecast layout! Learn more

10-Day Weather Forecast

Advertisements
Track Severe Weather on mobile